Time;durP1;ratioP1;P1;durP2;ratioP2;P2;SDS_P1;SDS_P2;PMS_P1;PMS_P2;Temp;Humidity;BMP_temperature;BMP_pressure;BME280_temperature;BME280_humidity;BME280_pressure;Samples;Min_cycle;Max_cycle;Signal;HPM_P1;HPM_P2
2022/07/29 00:00:56;;;;;;;11.00;9.00;;;;;;;16.67;100.00;99165.85;105059;1271;62251;-69
2022/07/29 00:03:23;;;;;;;9.00;7.90;;;;;;;16.66;100.00;99167.81;104979;1272;62072;-68
2022/07/29 00:05:49;;;;;;;10.70;8.20;;;;;;;16.65;100.00;99164.87;104978;1274;62369;-68
2022/07/29 00:08:15;;;;;;;8.90;8.00;;;;;;;16.65;100.00;99162.31;105263;1271;60792;-70
2022/07/29 00:10:42;;;;;;;9.10;7.70;;;;;;;16.66;100.00;99157.02;105286;1269;69392;-70
2022/07/29 00:13:08;;;;;;;7.90;7.10;;;;;;;16.67;100.00;99156.56;105242;1271;62104;-69
2022/07/29 00:15:34;;;;;;;8.60;6.80;;;;;;;16.67;100.00;99149.38;105242;1272;62212;-69
2022/07/29 00:18:00;;;;;;;10.20;7.30;;;;;;;16.69;100.00;99152.48;105287;1271;62131;-69
2022/07/29 00:20:26;;;;;;;13.60;6.50;;;;;;;16.68;100.00;99148.91;105222;1271;62187;-69
2022/07/29 00:22:53;;;;;;;8.30;6.70;;;;;;;16.68;100.00;99143.96;105206;1271;62133;-69
2022/07/29 00:25:19;;;;;;;8.50;6.50;;;;;;;16.68;100.00;99145.68;105200;1271;62625;-69
2022/07/29 00:27:48;;;;;;;6.90;6.00;;;;;;;16.69;100.00;99139.55;105262;1271;62254;-69
2022/07/29 00:30:14;;;;;;;6.50;5.80;;;;;;;16.70;100.00;99141.82;105241;1271;62174;-69
2022/07/29 00:32:40;;;;;;;8.40;5.90;;;;;;;16.71;100.00;99142.44;105230;1269;62043;-68
2022/07/29 00:37:52;;;;;;;6.00;5.40;;;;;;;16.73;100.00;99138.48;105211;1271;73766;-69
2022/07/29 00:40:18;;;;;;;7.90;5.90;;;;;;;16.74;100.00;99137.83;105188;1271;62462;-68
2022/07/29 00:42:47;;;;;;;9.10;6.90;;;;;;;16.74;100.00;99136.58;105257;1271;62217;-68
2022/07/29 00:45:15;;;;;;;6.20;5.30;;;;;;;16.74;100.00;99133.15;105230;1271;77224;-68
2022/07/29 00:47:41;;;;;;;7.40;5.40;;;;;;;16.73;99.97;99130.27;105065;1274;69294;-68
2022/07/29 00:50:10;;;;;;;7.70;5.70;;;;;;;16.71;99.92;99130.39;105239;1271;62124;-68
2022/07/29 00:52:37;;;;;;;5.60;5.00;;;;;;;16.71;99.94;99126.27;105267;1271;62432;-69
2022/07/29 00:55:05;;;;;;;5.50;5.00;;;;;;;16.71;99.61;99126.86;105221;1271;62079;-69
2022/07/29 00:57:32;;;;;;;6.70;5.10;;;;;;;16.70;99.00;99129.58;105264;1271;75898;-68
2022/07/29 00:59:58;;;;;;;6.20;4.90;;;;;;;16.68;98.81;99128.70;105217;1272;69414;-69
2022/07/29 01:02:24;;;;;;;6.00;5.10;;;;;;;16.66;98.56;99133.48;104984;1271;62178;-68
2022/07/29 01:04:51;;;;;;;6.40;4.80;;;;;;;16.65;98.08;99128.38;105189;1271;62114;-69
2022/07/29 01:07:18;;;;;;;7.60;4.50;;;;;;;16.63;97.93;99127.86;105254;1272;62190;-69
2022/07/29 01:09:45;;;;;;;6.50;4.50;;;;;;;16.61;97.77;99127.70;105237;1271;62631;-68
2022/07/29 01:12:25;;;;;;;5.80;4.20;;;;;;;16.58;97.71;99125.50;105429;1271;69115;-69
2022/07/29 01:14:53;;;;;;;6.90;5.10;;;;;;;16.55;97.78;99123.25;105306;1272;73328;-69
2022/07/29 01:17:40;;;;;;;4.90;4.20;;;;;;;16.52;98.12;99125.12;105231;1271;62078;-68
2022/07/29 01:20:17;;;;;;;7.70;4.90;;;;;;;16.50;98.39;99122.08;105240;1271;62107;-69
2022/07/29 01:23:32;;;;;;;6.20;4.40;;;;;;;16.47;98.74;99121.81;105210;1271;75028;-69
2022/07/29 01:26:08;;;;;;;8.30;5.00;;;;;;;16.42;99.06;99122.20;105213;1271;69320;-70
2022/07/29 01:28:41;;;;;;;7.60;5.00;;;;;;;16.41;99.08;99118.88;105215;1271;74291;-68
2022/07/29 01:31:10;;;;;;;9.30;5.40;;;;;;;16.40;99.24;99113.08;105234;1271;62109;-69
2022/07/29 01:33:50;;;;;;;6.80;4.50;;;;;;;16.40;99.09;99112.03;105254;1271;62078;-68
2022/07/29 01:36:31;;;;;;;5.80;4.60;;;;;;;16.38;99.45;99112.73;104999;1272;76548;-70
2022/07/29 01:39:30;;;;;;;7.30;4.50;;;;;;;16.36;99.25;99118.86;105239;1271;70694;-68
2022/07/29 01:42:05;;;;;;;8.10;4.80;;;;;;;16.32;99.46;99112.20;104824;1277;73600;-68
2022/07/29 01:44:37;;;;;;;6.70;4.80;;;;;;;16.30;99.64;99112.04;104800;1277;62428;-68
2022/07/29 01:47:12;;;;;;;5.30;4.10;;;;;;;16.28;99.30;99106.06;104809;1277;62261;-68
2022/07/29 01:49:47;;;;;;;8.80;4.70;;;;;;;16.26;99.11;99102.49;104841;1277;77296;-68
2022/07/29 01:52:21;;;;;;;6.40;4.70;;;;;;;16.25;98.63;99103.69;104818;1277;69231;-69
2022/07/29 01:54:57;;;;;;;5.70;4.20;;;;;;;16.24;98.23;99103.88;104826;1277;73321;-69
2022/07/29 01:57:28;;;;;;;6.00;4.30;;;;;;;16.26;97.66;99097.70;104799;1277;62084;-69
2022/07/29 01:59:56;;;;;;;6.90;4.50;;;;;;;16.25;97.27;99100.82;104790;1277;62098;-68
2022/07/29 02:02:23;;;;;;;4.40;4.00;;;;;;;16.23;96.69;99099.85;104846;1277;77121;-68
2022/07/29 02:04:52;;;;;;;7.40;4.10;;;;;;;16.22;96.57;99101.95;104525;1280;67397;-70
2022/07/29 02:07:21;;;;;;;7.60;4.60;;;;;;;16.20;96.31;99102.98;104910;1277;73305;-69
2022/07/29 02:09:50;;;;;;;5.80;4.90;;;;;;;16.18;96.13;99108.19;105056;1278;62091;-69
2022/07/29 02:12:19;;;;;;;5.90;4.40;;;;;;;16.17;96.11;99104.76;104848;1277;62193;-69
2022/07/29 02:14:49;;;;;;;9.50;5.90;;;;;;;16.16;96.11;99112.19;104959;1277;76394;-68
2022/07/29 02:17:31;;;;;;;6.60;4.60;;;;;;;16.12;95.96;99104.31;104809;1278;69629;-68
2022/07/29 02:20:01;;;;;;;7.30;4.50;;;;;;;16.11;95.79;99103.65;105244;1269;73477;-68
2022/07/29 02:22:29;;;;;;;;;;;;;;;16.09;95.55;99104.73;105291;1271;62252;-69
2022/07/29 02:24:57;;;;;;;7.00;4.50;;;;;;;16.06;95.28;99100.15;105231;1271;61978;-68
2022/07/29 02:27:27;;;;;;;6.20;3.90;;;;;;;16.02;95.29;99100.98;105085;1274;76557;-69
2022/07/29 02:29:54;;;;;;;8.20;4.30;;;;;;;15.98;95.03;99101.54;105298;1270;69234;-69
2022/07/29 02:32:22;;;;;;;5.30;4.00;;;;;;;15.96;94.69;99100.64;105186;1271;73282;-68
2022/07/29 02:34:51;;;;;;;9.80;3.80;;;;;;;15.94;94.94;99099.41;105469;1271;62144;-68
2022/07/29 02:37:18;;;;;;;6.90;4.10;;;;;;;15.91;94.87;99096.77;105287;1271;62100;-67
2022/07/29 02:39:45;;;;;;;7.70;4.90;;;;;;;15.89;95.12;99088.90;105330;1271;76151;-69
2022/07/29 02:42:15;;;;;;;7.70;4.70;;;;;;;15.88;95.29;99087.80;105271;1271;70354;-69
2022/07/29 02:44:42;;;;;;;7.70;4.80;;;;;;;15.88;95.07;99082.23;105297;1271;73250;-69
2022/07/29 02:47:20;;;;;;;6.10;4.60;;;;;;;15.87;95.02;99086.20;105173;1271;62161;-69
2022/07/29 02:49:46;;;;;;;6.80;4.60;;;;;;;15.87;95.04;99090.21;105236;1269;62664;-69
2022/07/29 02:52:19;;;;;;;6.20;4.00;;;;;;;15.85;94.96;99089.61;105261;1268;62161;-68
2022/07/29 02:54:56;;;;;;;8.00;4.30;;;;;;;15.83;95.16;99090.90;105228;1271;69795;-68
2022/07/29 02:57:44;;;;;;;5.60;4.50;;;;;;;15.80;95.12;99098.45;105245;1271;74387;-69
2022/07/29 03:00:11;;;;;;;7.50;4.80;;;;;;;15.77;95.21;99096.77;105248;1271;62067;-69
2022/07/29 03:02:42;;;;;;;6.10;4.50;;;;;;;15.74;95.27;99094.53;105368;1270;61970;-69
2022/07/29 03:05:17;;;;;;;10.80;4.80;;;;;;;15.71;95.21;99099.58;105266;1271;77154;-69
2022/07/29 03:07:47;;;;;;;6.10;4.30;;;;;;;15.70;95.35;99093.30;105247;1271;70175;-70
2022/07/29 03:10:13;;;;;;;7.60;4.30;;;;;;;15.68;95.18;99091.94;105363;1271;72463;-69
2022/07/29 03:12:41;;;;;;;6.90;4.30;;;;;;;15.68;95.43;99091.08;105247;1271;62319;-69
2022/07/29 03:15:08;;;;;;;9.70;5.10;;;;;;;15.67;95.33;99092.09;105125;1271;62248;-69
2022/07/29 03:17:36;;;;;;;7.80;4.40;;;;;;;15.68;95.07;99093.97;105024;1272;74915;-69
2022/07/29 03:20:03;;;;;;;9.30;4.50;;;;;;;15.71;95.02;99092.64;105325;1271;70509;-69
2022/07/29 03:22:29;;;;;;;6.70;4.60;;;;;;;15.74;94.94;99094.14;105187;1272;74101;-69
2022/07/29 03:24:55;;;;;;;7.10;5.10;;;;;;;15.78;94.57;99098.61;105324;1271;62584;-68
2022/07/29 03:27:21;;;;;;;6.20;4.10;;;;;;;15.82;94.38;99099.86;105225;1271;62159;-69
2022/07/29 03:29:47;;;;;;;6.90;4.20;;;;;;;15.87;94.23;99094.10;105254;1271;62045;-68
2022/07/29 03:32:13;;;;;;;6.30;3.80;;;;;;;15.92;93.94;99096.69;105269;1270;62404;-69
2022/07/29 03:34:39;;;;;;;8.30;3.70;;;;;;;15.99;93.46;99095.92;105242;1271;62043;-69
2022/07/29 03:37:06;;;;;;;6.50;3.90;;;;;;;16.05;93.05;99099.72;104959;1271;62260;-69
2022/07/29 03:39:39;;;;;;;5.70;3.60;;;;;;;16.11;92.76;99100.09;105308;1270;62074;-70
2022/07/29 03:42:08;;;;;;;6.40;3.60;;;;;;;16.17;92.41;99098.23;105347;1271;77143;-69
2022/07/29 03:44:35;;;;;;;6.30;4.40;;;;;;;16.23;91.97;99089.52;105274;1271;70243;-69
2022/07/29 03:47:02;;;;;;;6.80;3.40;;;;;;;16.28;91.36;99084.18;105234;1271;73457;-69
2022/07/29 03:49:30;;;;;;;5.50;3.50;;;;;;;16.31;90.73;99089.35;105252;1271;62078;-69
2022/07/29 03:51:57;;;;;;;3.90;3.40;;;;;;;16.47;90.11;99089.85;105403;1271;62059;-69
2022/07/29 03:54:23;;;;;;;6.30;3.70;;;;;;;16.98;88.97;99091.30;105214;1271;62160;-69
2022/07/29 03:56:52;;;;;;;5.60;3.70;;;;;;;17.54;87.04;99087.55;105219;1271;62161;-69
2022/07/29 03:59:21;;;;;;;6.30;4.10;;;;;;;18.05;84.59;99084.88;104994;1271;73302;-69
2022/07/29 04:01:48;;;;;;;6.20;4.20;;;;;;;18.27;83.61;99081.20;105105;1271;62123;-68
2022/07/29 04:04:14;;;;;;;5.00;3.80;;;;;;;18.33;82.64;99079.30;105299;1269;62125;-68
2022/07/29 04:07:01;;;;;;;6.10;3.40;;;;;;;17.96;82.54;99081.67;105295;1270;77054;-68
2022/07/29 04:09:27;;;;;;;3.70;2.90;;;;;;;17.75;82.96;99086.38;105199;1271;62048;-69
2022/07/29 04:11:53;;;;;;;4.70;3.50;;;;;;;17.61;82.65;99087.48;105232;1269;62150;-69
2022/07/29 04:14:20;;;;;;;4.70;3.30;;;;;;;18.01;82.25;99082.77;105237;1271;62240;-70
2022/07/29 04:16:47;;;;;;;7.60;3.30;;;;;;;18.91;79.88;99078.42;105330;1271;62210;-69
2022/07/29 04:19:13;;;;;;;5.20;3.30;;;;;;;19.58;77.54;99080.88;105230;1270;62082;-69
2022/07/29 04:21:40;;;;;;;3.80;3.20;;;;;;;20.21;76.08;99081.30;105052;1271;62081;-69
2022/07/29 04:24:07;;;;;;;3.60;3.00;;;;;;;20.83;74.14;99075.85;105285;1271;62128;-69
2022/07/29 04:26:34;;;;;;;6.50;3.40;;;;;;;21.33;72.08;99078.64;105239;1271;62073;-69
2022/07/29 04:29:00;;;;;;;4.80;3.90;;;;;;;21.75;70.93;99075.85;105351;1271;62458;-70
2022/07/29 04:31:27;;;;;;;4.30;3.50;;;;;;;22.20;69.25;99077.03;105320;1271;76160;-69
2022/07/29 04:33:53;;;;;;;3.40;3.00;;;;;;;22.49;68.13;99075.80;105222;1271;62082;-69
2022/07/29 04:36:19;;;;;;;5.00;3.10;;;;;;;22.67;66.66;99076.46;105233;1271;62160;-69
2022/07/29 04:38:45;;;;;;;6.50;3.50;;;;;;;22.82;65.47;99070.48;105241;1271;63013;-70
2022/07/29 04:41:10;;;;;;;4.00;3.30;;;;;;;23.02;64.60;99069.48;105253;1271;62167;-69
2022/07/29 04:43:36;;;;;;;3.30;3.00;;;;;;;23.19;63.70;99070.65;105261;1271;62524;-69
2022/07/29 04:46:05;;;;;;;5.00;2.90;;;;;;;23.35;63.32;99071.91;105245;1271;62163;-69
2022/07/29 04:48:31;;;;;;;5.60;3.10;;;;;;;23.52;62.16;99068.94;105356;1271;62209;-69
2022/07/29 04:50:57;;;;;;;3.20;2.90;;;;;;;23.69;61.22;99063.14;105243;1271;63765;-69
2022/07/29 04:53:24;;;;;;;4.00;2.90;;;;;;;23.82;60.45;99059.48;105220;1271;62125;-70
2022/07/29 04:55:50;;;;;;;3.90;3.10;;;;;;;23.84;58.79;99057.33;105229;1270;62132;-68
2022/07/29 04:58:16;;;;;;;5.50;3.50;;;;;;;23.71;58.23;99060.30;105241;1271;62178;-70
2022/07/29 05:00:42;;;;;;;5.80;3.20;;;;;;;23.65;58.42;99063.38;105235;1270;62180;-69
2022/07/29 05:03:08;;;;;;;7.60;3.40;;;;;;;23.79;58.48;99057.17;105262;1271;62312;-69
2022/07/29 05:05:34;;;;;;;3.80;2.90;;;;;;;23.99;57.89;99057.98;105076;1272;62533;-70
2022/07/29 05:08:02;;;;;;;3.40;3.00;;;;;;;24.21;57.19;99052.79;105324;1271;62135;-69
2022/07/29 05:10:28;;;;;;;5.20;3.40;;;;;;;24.22;56.36;99051.04;104990;1272;62307;-69
2022/07/29 05:12:54;;;;;;;4.00;2.90;;;;;;;24.12;55.99;99051.88;105194;1271;62194;-69
2022/07/29 05:15:20;;;;;;;3.20;2.90;;;;;;;24.07;55.06;99049.00;105273;1271;62158;-69
2022/07/29 05:17:46;;;;;;;4.80;3.00;;;;;;;23.91;55.18;99053.05;105219;1271;76234;-68
2022/07/29 05:20:12;;;;;;;3.30;2.40;;;;;;;24.01;55.74;99047.48;105220;1270;62156;-70
2022/07/29 05:22:38;;;;;;;5.70;2.80;;;;;;;24.22;54.91;99052.85;105235;1269;62080;-69
2022/07/29 05:25:05;;;;;;;3.50;2.90;;;;;;;24.31;54.70;99051.11;105227;1271;62173;-69
2022/07/29 05:27:31;;;;;;;4.60;3.30;;;;;;;24.38;54.53;99051.79;105320;1271;62196;-69
2022/07/29 05:29:57;;;;;;;4.30;2.80;;;;;;;24.55;54.63;99058.65;105239;1271;62377;-69
2022/07/29 05:32:23;;;;;;;4.20;2.80;;;;;;;24.78;54.47;99060.98;105248;1271;62087;-69
2022/07/29 05:34:49;;;;;;;5.00;3.00;;;;;;;25.14;54.46;99067.02;105194;1271;62094;-70
2022/07/29 05:37:15;;;;;;;4.10;2.50;;;;;;;25.57;53.70;99074.32;105217;1271;62184;-68
2022/07/29 05:39:41;;;;;;;5.90;2.60;;;;;;;25.80;52.44;99077.86;105270;1271;62254;-70
2022/07/29 05:42:10;;;;;;;3.50;2.80;;;;;;;25.45;53.00;99083.28;105249;1271;69191;-69
2022/07/29 05:44:37;;;;;;;5.60;2.80;;;;;;;24.89;53.69;99082.28;105219;1271;73734;-69
2022/07/29 05:47:03;;;;;;;4.50;3.20;;;;;;;24.38;54.09;99081.73;105000;1271;62080;-68
2022/07/29 05:49:29;;;;;;;4.20;3.30;;;;;;;24.16;54.14;99077.73;104989;1274;62247;-69
2022/07/29 05:51:55;;;;;;;4.90;2.80;;;;;;;24.13;54.07;99078.52;105263;1271;62174;-69
2022/07/29 05:54:21;;;;;;;3.80;2.60;;;;;;;24.32;52.86;99074.69;105202;1271;62068;-70
2022/07/29 05:56:47;;;;;;;3.30;2.70;;;;;;;24.37;53.09;99076.05;105258;1269;62412;-69
2022/07/29 05:59:13;;;;;;;5.70;3.40;;;;;;;24.49;53.22;99068.36;105238;1269;62906;-69
2022/07/29 06:01:39;;;;;;;4.50;3.20;;;;;;;24.71;53.55;99058.59;105255;1271;62196;-68
2022/07/29 06:04:06;;;;;;;4.80;3.10;;;;;;;24.91;53.14;99056.66;105265;1271;62137;-70
2022/07/29 06:06:34;;;;;;;5.50;3.40;;;;;;;25.00;53.08;99051.89;105220;1271;72641;-69
2022/07/29 06:09:01;;;;;;;3.70;3.30;;;;;;;25.12;53.43;99048.88;105319;1269;62097;-69
2022/07/29 06:11:27;;;;;;;9.90;3.20;;;;;;;25.31;53.20;99050.80;105269;1271;62050;-69
2022/07/29 06:13:53;;;;;;;5.90;3.00;;;;;;;25.36;52.18;99046.31;105221;1271;62064;-69
2022/07/29 06:16:19;;;;;;;3.30;3.00;;;;;;;25.32;52.61;99046.95;105211;1271;62217;-68
2022/07/29 06:18:45;;;;;;;4.90;3.30;;;;;;;25.42;52.86;99043.42;105227;1270;62129;-69
2022/07/29 06:21:11;;;;;;;4.50;3.70;;;;;;;25.57;53.08;99048.45;105221;1268;62190;-70
2022/07/29 06:23:38;;;;;;;5.00;2.90;;;;;;;25.67;52.35;99050.11;104991;1274;62388;-70
2022/07/29 06:26:04;;;;;;;4.20;3.10;;;;;;;25.72;52.70;99055.98;105195;1268;62197;-70
2022/07/29 06:28:32;;;;;;;4.70;3.10;;;;;;;25.91;53.17;99055.14;105190;1268;62100;-69
2022/07/29 06:30:59;;;;;;;5.90;3.20;;;;;;;25.90;51.79;99058.55;105288;1268;62119;-69
2022/07/29 06:33:25;;;;;;;3.50;3.10;;;;;;;25.53;51.28;99056.52;105271;1268;62177;-69
2022/07/29 06:35:51;;;;;;;6.50;3.60;;;;;;;25.35;52.10;99055.06;105222;1268;62081;-69
2022/07/29 06:38:17;;;;;;;6.50;3.20;;;;;;;25.25;52.31;99056.30;105226;1269;62294;-69
2022/07/29 06:40:59;;;;;;;5.40;4.00;;;;;;;25.18;52.31;99057.35;104954;1268;62081;-70
2022/07/29 06:43:51;;;;;;;3.90;3.30;;;;;;;25.17;52.73;99052.84;105252;1269;73544;-70
2022/07/29 06:46:18;;;;;;;5.50;3.20;;;;;;;25.37;52.96;99058.96;105241;1268;62298;-68
2022/07/29 06:48:45;;;;;;;6.50;3.60;;;;;;;25.29;52.89;99066.93;105399;1269;62002;-69
2022/07/29 06:51:12;;;;;;;5.10;3.60;;;;;;;24.86;53.86;99067.98;105234;1268;77238;-68
2022/07/29 06:53:38;;;;;;;4.00;3.50;;;;;;;24.86;54.03;99071.43;104886;1268;62171;-69
2022/07/29 06:56:08;;;;;;;5.50;3.40;;;;;;;24.92;54.02;99076.36;105080;1269;62095;-69
2022/07/29 06:58:35;;;;;;;6.30;3.60;;;;;;;24.95;53.53;99074.80;105331;1268;62113;-69
2022/07/29 07:01:04;;;;;;;4.30;3.60;;;;;;;24.99;54.05;99071.42;105333;1271;62027;-69
2022/07/29 07:03:30;;;;;;;5.80;3.50;;;;;;;25.22;54.25;99068.63;105272;1271;77169;-68
2022/07/29 07:05:57;;;;;;;4.30;3.60;;;;;;;25.26;53.91;99063.56;104993;1271;70425;-71
2022/07/29 07:08:23;;;;;;;4.70;3.50;;;;;;;25.30;54.54;99067.79;105235;1268;74333;-69
2022/07/29 07:10:53;;;;;;;4.60;3.80;;;;;;;25.40;54.39;99061.20;105247;1270;62078;-70
2022/07/29 07:13:19;;;;;;;6.10;3.60;;;;;;;25.48;54.25;99061.06;105295;1271;62439;-69
2022/07/29 07:15:48;;;;;;;7.80;4.00;;;;;;;25.59;54.21;99061.83;105121;1271;62146;-69
2022/07/29 07:18:15;;;;;;;5.70;3.40;;;;;;;25.60;53.98;99061.88;105275;1271;70115;-70
2022/07/29 07:20:42;;;;;;;5.80;3.90;;;;;;;25.34;53.53;99062.35;105270;1271;73647;-69
2022/07/29 07:23:08;;;;;;;8.30;4.10;;;;;;;24.79;54.63;99062.90;105203;1271;62135;-69
2022/07/29 07:25:34;;;;;;;6.70;4.10;;;;;;;24.40;55.35;99061.73;105234;1271;62075;-69
2022/07/29 07:28:00;;;;;;;6.20;3.60;;;;;;;24.35;56.26;99062.94;104994;1271;62161;-69
2022/07/29 07:30:27;;;;;;;4.80;3.50;;;;;;;24.42;56.74;99062.36;105020;1271;62365;-68
2022/07/29 07:32:53;;;;;;;5.90;4.30;;;;;;;24.51;57.36;99066.08;105214;1268;62094;-69
2022/07/29 07:35:20;;;;;;;7.70;3.90;;;;;;;24.52;57.34;99063.61;105274;1269;62134;-68
2022/07/29 07:37:46;;;;;;;4.00;3.40;;;;;;;24.58;57.24;99061.73;105233;1271;62530;-68
2022/07/29 07:40:13;;;;;;;6.30;3.80;;;;;;;24.61;57.14;99062.42;105154;1271;62141;-69
2022/07/29 07:42:41;;;;;;;5.80;3.80;;;;;;;24.56;56.93;99061.77;105197;1271;62202;-69
2022/07/29 07:45:09;;;;;;;5.90;4.30;;;;;;;24.36;56.90;99060.05;105259;1271;73328;-70
2022/07/29 07:47:36;;;;;;;4.70;4.00;;;;;;;24.29;57.55;99063.61;105257;1268;62147;-69
2022/07/29 07:50:07;;;;;;;7.90;4.20;;;;;;;24.23;57.59;99063.92;105093;1271;62078;-70
2022/07/29 07:52:33;;;;;;;7.60;4.70;;;;;;;24.15;57.72;99062.30;105235;1270;76251;-69
2022/07/29 07:54:59;;;;;;;4.80;3.70;;;;;;;24.20;58.21;99063.83;105254;1271;62290;-70
2022/07/29 07:57:26;;;;;;;6.00;4.10;;;;;;;24.33;58.67;99064.62;104968;1271;62242;-70
2022/07/29 07:59:52;;;;;;;5.70;4.40;;;;;;;24.43;58.12;99068.98;105307;1271;62068;-70
2022/07/29 08:02:18;;;;;;;6.10;4.10;;;;;;;24.42;58.02;99068.11;105316;1270;62117;-70
2022/07/29 08:04:44;;;;;;;5.10;3.80;;;;;;;24.39;57.89;99068.91;105237;1270;62447;-69
2022/07/29 08:07:10;;;;;;;6.10;4.40;;;;;;;24.19;57.85;99066.46;105212;1270;62177;-70
2022/07/29 08:09:36;;;;;;;5.20;3.90;;;;;;;24.16;58.31;99063.70;105223;1271;62091;-69
2022/07/29 08:12:04;;;;;;;7.50;4.30;;;;;;;24.25;58.49;99066.84;105252;1271;62176;-69
2022/07/29 08:14:30;;;;;;;4.20;3.80;;;;;;;24.40;58.71;99068.30;105267;1268;62144;-68
2022/07/29 08:16:57;;;;;;;4.80;4.00;;;;;;;24.46;58.18;99063.15;105227;1268;62268;-69
2022/07/29 08:19:24;;;;;;;6.70;4.10;;;;;;;24.50;58.52;99060.86;105317;1268;62258;-69
2022/07/29 08:21:52;;;;;;;5.00;4.50;;;;;;;24.63;58.49;99062.19;105209;1269;62082;-70
2022/07/29 08:27:03;;;;;;;6.40;4.00;;;;;;;24.88;58.29;99063.02;105107;1268;62097;-69
2022/07/29 08:29:28;;;;;;;5.40;4.20;;;;;;;24.91;58.59;99058.27;105209;1270;62112;-69
2022/07/29 08:31:54;;;;;;;6.00;4.30;;;;;;;24.94;58.57;99058.13;105197;1269;62613;-69
2022/07/29 08:34:21;;;;;;;6.80;4.40;;;;;;;24.91;58.80;99058.98;105240;1269;62174;-69
2022/07/29 08:36:47;;;;;;;7.90;4.40;;;;;;;24.89;58.83;99052.13;105240;1269;62106;-68
2022/07/29 08:39:13;;;;;;;4.50;4.00;;;;;;;24.94;58.60;99053.85;105206;1268;62154;-68
2022/07/29 08:41:40;;;;;;;8.90;5.10;;;;;;;24.92;58.53;99054.25;105257;1271;62185;-69
2022/07/29 08:44:05;;;;;;;4.30;3.90;;;;;;;25.01;58.92;99053.20;105231;1270;62311;-69
2022/07/29 08:46:31;;;;;;;5.90;3.90;;;;;;;25.11;58.90;99051.42;105244;1271;62167;-71
2022/07/29 08:48:57;;;;;;;4.20;3.80;;;;;;;25.26;59.00;99050.77;105262;1271;62167;-70
2022/07/29 08:51:25;;;;;;;5.90;4.30;;;;;;;25.42;58.53;99052.91;105222;1268;76114;-70
2022/07/29 08:53:51;;;;;;;4.40;4.00;;;;;;;25.58;58.46;99043.18;105333;1270;69230;-70
2022/07/29 08:56:19;;;;;;;4.80;4.00;;;;;;;25.72;58.06;99042.30;105164;1271;61642;-70
2022/07/29 08:58:47;;;;;;;6.40;4.40;;;;;;;25.74;57.57;99043.34;105334;1268;62115;-70
2022/07/29 09:01:20;;;;;;;6.30;4.30;;;;;;;25.81;57.35;99050.05;105368;1268;61982;-71
2022/07/29 09:03:48;;;;;;;7.10;4.20;;;;;;;25.78;56.90;99048.66;105247;1269;76341;-68
2022/07/29 09:06:18;;;;;;;6.50;4.10;;;;;;;25.73;57.27;99049.86;105296;1270;69332;-68
2022/07/29 09:08:44;;;;;;;6.20;4.10;;;;;;;25.68;57.41;99052.95;105057;1271;74561;-69
2022/07/29 09:11:13;;;;;;;5.10;4.30;;;;;;;25.69;57.28;99055.30;105237;1271;62091;-69
2022/07/29 09:13:40;;;;;;;6.40;4.00;;;;;;;25.70;57.58;99052.38;105289;1271;61990;-68
2022/07/29 09:16:06;;;;;;;6.40;4.50;;;;;;;25.75;57.67;99051.73;105253;1271;76065;-69
2022/07/29 09:18:38;;;;;;;11.40;4.10;;;;;;;25.86;57.82;99050.02;105198;1271;62075;-69
2022/07/29 09:24:09;;;;;;;6.50;4.80;;;;;;;26.04;57.79;99042.20;105238;1271;62207;-69
2022/07/29 09:26:38;;;;;;;6.80;4.20;;;;;;;26.05;57.21;99038.98;105250;1271;62203;-69
2022/07/29 09:29:12;;;;;;;5.40;4.40;;;;;;;25.99;57.37;99038.48;105227;1271;77187;-70
2022/07/29 09:31:41;;;;;;;6.10;4.40;;;;;;;26.00;57.37;99038.37;105228;1271;69284;-69
2022/07/29 09:34:08;;;;;;;5.50;4.10;;;;;;;26.16;57.15;99036.23;105287;1270;73430;-69
2022/07/29 09:36:46;;;;;;;5.50;4.10;;;;;;;26.24;56.86;99035.67;105271;1270;62070;-69
2022/07/29 09:39:14;;;;;;;6.80;4.70;;;;;;;26.27;56.89;99034.21;105305;1271;61961;-70
2022/07/29 09:41:52;;;;;;;4.40;4.00;;;;;;;26.26;56.32;99036.73;105213;1271;77216;-70
2022/07/29 09:44:20;;;;;;;9.30;4.70;;;;;;;26.24;56.58;99029.33;105292;1271;70235;-70
2022/07/29 09:46:57;;;;;;;7.60;5.20;;;;;;;26.32;57.18;99026.63;104884;1270;249097;-69
2022/07/29 09:49:24;;;;;;;5.60;4.70;;;;;;;26.57;57.25;99021.70;105189;1271;62149;-68
2022/07/29 09:52:10;;;;;;;4.70;4.20;;;;;;;26.72;57.52;99014.95;104996;1271;62195;-69
2022/07/29 09:54:37;;;;;;;6.10;4.30;;;;;;;26.99;57.43;99009.77;105238;1271;76286;-69
2022/07/29 09:57:09;;;;;;;8.10;3.80;;;;;;;27.12;56.86;99008.48;105227;1271;62158;-69
2022/07/29 09:59:35;;;;;;;5.20;4.60;;;;;;;27.12;56.23;99005.11;105324;1270;73901;-70
2022/07/29 10:02:13;;;;;;;4.50;4.10;;;;;;;27.17;56.26;99004.17;105262;1271;62113;-70
2022/07/29 10:04:40;;;;;;;4.50;3.90;;;;;;;27.22;56.13;99006.20;105347;1271;62212;-69
2022/07/29 10:07:07;;;;;;;4.70;4.20;;;;;;;27.23;55.43;99001.34;105308;1271;76312;-70
2022/07/29 10:09:34;;;;;;;6.50;4.00;;;;;;;27.24;56.02;99000.61;105311;1271;68929;-70
2022/07/29 10:12:13;;;;;;;4.80;4.10;;;;;;;27.38;56.09;98996.52;105296;1270;73964;-70
2022/07/29 10:14:40;;;;;;;5.40;4.30;;;;;;;27.55;55.65;98993.82;105250;1271;62122;-69
2022/07/29 10:17:26;;;;;;;5.50;4.10;;;;;;;27.68;55.25;98996.02;105245;1271;62194;-70
2022/07/29 10:19:52;;;;;;;5.90;4.50;;;;;;;27.73;55.15;98995.01;104850;1274;77092;-69
2022/07/29 10:22:19;;;;;;;6.20;4.10;;;;;;;27.88;54.93;98999.17;104768;1275;62148;-70
2022/07/29 10:24:45;;;;;;;4.50;3.80;;;;;;;27.93;54.36;98995.33;104870;1274;62286;-69
2022/07/29 10:27:11;;;;;;;4.60;4.00;;;;;;;27.92;54.10;98990.09;104874;1274;62136;-69
2022/07/29 10:29:39;;;;;;;6.70;4.30;;;;;;;27.99;54.29;98994.69;104930;1274;62015;-69
2022/07/29 10:33:09;;;;;;;5.50;4.60;;;;;;;28.06;54.49;98993.72;104867;1274;62119;-69
2022/07/29 10:36:01;;;;;;;4.40;4.00;;;;;;;28.14;54.32;98991.14;103984;1281;69662;-69
2022/07/29 10:38:33;;;;;;;4.50;4.00;;;;;;;28.18;54.55;98989.44;104364;1281;74752;-69
2022/07/29 10:41:34;;;;;;;4.60;4.20;;;;;;;28.24;53.98;98983.79;104319;1281;62264;-68
2022/07/29 10:44:16;;;;;;;5.60;3.60;;;;;;;28.19;53.19;98984.91;104040;1282;62317;-70
2022/07/29 10:46:43;;;;;;;5.80;4.00;;;;;;;28.03;51.90;98988.30;104427;1281;76145;-68
2022/07/29 10:49:14;;;;;;;4.60;4.20;;;;;;;27.89;52.70;98985.40;104431;1281;69498;-69
2022/07/29 10:51:57;;;;;;;5.90;3.80;;;;;;;27.97;52.50;98984.86;104493;1278;72757;-69
2022/07/29 10:54:38;;;;;;;4.80;4.20;;;;;;;28.12;51.85;98982.91;104613;1277;62102;-70
2022/07/29 10:57:20;;;;;;;17.90;4.50;;;;;;;28.45;52.46;98974.14;104547;1277;62079;-69
2022/07/29 11:00:10;;;;;;;4.10;3.80;;;;;;;28.82;52.14;98975.36;104585;1277;76290;-69
2022/07/29 11:02:42;;;;;;;5.20;3.90;;;;;;;29.11;51.44;98974.88;104565;1277;69607;-70
2022/07/29 11:05:19;;;;;;;4.30;3.80;;;;;;;29.29;50.93;98975.54;104556;1278;74709;-69
2022/07/29 11:08:09;;;;;;;4.30;3.80;;;;;;;29.43;50.73;98970.73;105277;1270;62075;-70
2022/07/29 11:10:36;;;;;;;6.60;3.60;;;;;;;29.45;49.33;98976.28;105252;1271;62044;-70
2022/07/29 11:13:02;;;;;;;4.30;3.90;;;;;;;29.43;48.78;98974.24;105223;1271;62177;-70
2022/07/29 11:15:27;;;;;;;4.00;3.30;;;;;;;29.48;49.48;98971.77;105197;1270;62869;-69
2022/07/29 11:17:54;;;;;;;4.30;3.60;;;;;;;29.70;49.34;98976.06;105038;1271;62182;-69
2022/07/29 11:20:44;;;;;;;5.90;3.80;;;;;;;29.87;48.96;98975.76;105220;1271;62101;-69
2022/07/29 11:23:26;;;;;;;4.90;3.40;;;;;;;29.88;47.27;98978.45;105300;1271;62155;-69
2022/07/29 11:26:22;;;;;;;6.10;3.70;;;;;;;29.56;46.79;98979.22;105259;1270;76159;-68
2022/07/29 11:29:06;;;;;;;4.40;3.80;;;;;;;29.29;46.51;98977.02;105186;1271;69845;-69
2022/07/29 11:31:38;;;;;;;4.50;4.10;;;;;;;29.20;47.17;98974.83;105193;1271;73372;-68
2022/07/29 11:34:24;;;;;;;3.80;3.20;;;;;;;29.38;48.17;98971.16;105189;1271;62195;-69
2022/07/29 11:37:12;;;;;;;3.90;3.40;;;;;;;29.43;47.00;98972.08;105189;1271;62136;-69
2022/07/29 11:39:43;;;;;;;4.30;3.50;;;;;;;29.23;46.80;98971.41;104983;1271;75780;-69
2022/07/29 11:42:20;;;;;;;3.90;3.00;;;;;;;29.14;47.01;98970.10;105273;1271;69311;-71
2022/07/29 11:45:00;;;;;;;4.10;3.70;;;;;;;29.12;47.17;98966.73;105199;1271;73563;-70